メインページ
METAR-TAF:

METAR-TAF

空港 :

ウランバートル, モンゴル国

チンギスハーン国際空港

緯度: 47-55N, 経度: 106-52E, 海抜: 1306m

現時点の気象観測

当レポートは18分前の01:00(UTC)に作成
変向風 2kt
気温 11°C
湿度 35%
気圧 1020 hPa
視程10km以上
1,500メートル以下は雲なし、積乱雲なし

METAR: ZMUB 230100Z VRB01MPS CAVOK 11/M04 Q1020 NOSIG RMK QFE657.6 35

時間: 10:18 (01:18 UTC)

予報

当レポートは2時間38分前の22:40(UTC)に作成
予報は23日の 00時(UTC)から 24日の 06時(UTC)まで有効
変向風 4kt
視程10km以上
1,500メートル以下は雲なし、積乱雲なし
23日の 03時(UTC)から 23日の 05時(UTC)まで徐々に
西/北西の風 14kt
高度3300ftの雲は散在している
23日の 10時(UTC)から 23日の 12時(UTC)まで徐々に
変向風 4kt
24日の 03時(UTC)から 24日の 05時(UTC)まで徐々に
西/北西の風 10kt

TAF: ZMUB 222240Z 2300/2406 VRB02MPS CAVOK TX24/2307Z TN05/2322Z BECMG 2303/2305 29007MPS SCT033 BECMG 2310/2312 VRB02MPS BECMG 2403/2405 29005MPS

4,000以上の空港の気象観測と天気予報(METAR報とTAF報)

利用可能な観測所は地図上に黄色い丸と赤い丸で示す。

丸の上にカーソルを重ねると観測所名を参照できる。

次にクリックすると気象観測と天気予報を参照できる。

マップの切り替え:黒色「×」印の緑ボタンをクリックして拡大、「-」印の緑ボタンをクリックして縮小、緑色の三角印をクリックして隣りの地図に切り替え


METAR-TAF: